Time;durP1;ratioP1;P1;durP2;ratioP2;P2;SDS_P1;SDS_P2;PMS_P1;PMS_P2;Temp;Humidity;BMP_temperature;BMP_pressure;BME280_temperature;BME280_humidity;BME280_pressure;Samples;Min_cycle;Max_cycle;Signal;HPM_P1;HPM_P2
2022/01/15 00:00:24;;;;;;;27.35;4.72;;;;;;;;;;5083761;28;20015;-63
2022/01/15 00:02:50;;;;;;;19.27;3.30;;;;;;;;;;5112871;28;20420;-60
2022/01/15 00:05:16;;;;;;;21.10;4.25;;;;;;;;;;5112836;28;20381;-67
2022/01/15 00:07:44;;;;;;;17.67;3.58;;;;;;;;;;5102580;28;20165;-64
2022/01/15 00:10:10;;;;;;;19.27;4.10;;;;;;;;;;5097203;28;20028;-60
2022/01/15 00:12:40;;;;;;;18.13;3.63;;;;;;;;;;5112657;28;20034;-59
2022/01/15 00:15:09;;;;;;;21.17;3.92;;;;;;;;;;5112589;28;20027;-60
2022/01/15 00:17:56;;;;;;;20.00;4.18;;;;;;;;;;5112806;28;20034;-60
2022/01/15 00:20:23;;;;;;;16.58;4.50;;;;;;;;;;5112721;28;20035;-61
2022/01/15 00:22:51;;;;;;;26.25;4.47;;;;;;;;;;5110416;28;20457;-60
2022/01/15 00:25:18;;;;;;;12.07;2.58;;;;;;;;;;5092292;28;20107;-60
2022/01/15 00:27:44;;;;;;;21.85;3.90;;;;;;;;;;5108360;28;20533;-60
2022/01/15 00:30:12;;;;;;;20.25;3.70;;;;;;;;;;5112593;28;20110;-60
2022/01/15 00:32:38;;;;;;;14.23;3.08;;;;;;;;;;5112486;28;20039;-62
2022/01/15 00:35:05;;;;;;;25.75;3.60;;;;;;;;;;5094177;28;20076;-61
2022/01/15 00:37:31;;;;;;;13.18;3.13;;;;;;;;;;5112511;28;20182;-60
2022/01/15 00:40:04;;;;;;;24.80;4.25;;;;;;;;;;5112250;28;20046;-60
2022/01/15 00:42:31;;;;;;;9.25;2.88;;;;;;;;;;5112474;28;20023;-61
2022/01/15 00:44:58;;;;;;;26.73;4.90;;;;;;;;;;5112391;28;20124;-60
2022/01/15 00:47:25;;;;;;;19.77;3.40;;;;;;;;;;5110711;28;20031;-61
2022/01/15 00:49:51;;;;;;;17.55;3.90;;;;;;;;;;5112532;28;20111;-60
2022/01/15 00:52:17;;;;;;;14.70;4.15;;;;;;;;;;5112492;28;20024;-60
2022/01/15 00:54:43;;;;;;;15.38;3.45;;;;;;;;;;5100687;28;20020;-60
2022/01/15 00:57:08;;;;;;;20.52;3.78;;;;;;;;;;5116288;28;20051;-61
2022/01/15 00:59:34;;;;;;;18.25;4.03;;;;;;;;;;5116471;28;20019;-60
2022/01/15 01:01:59;;;;;;;24.50;4.15;;;;;;;;;;5113132;28;20052;-61
2022/01/15 01:04:24;;;;;;;23.30;3.78;;;;;;;;;;5095138;28;20035;-60
2022/01/15 01:06:50;;;;;;;24.00;4.25;;;;;;;;;;5097523;28;20024;-58
2022/01/15 01:09:15;;;;;;;15.70;3.65;;;;;;;;;;5115983;28;20048;-61
2022/01/15 01:11:54;;;;;;;30.58;4.03;;;;;;;;;;5116808;28;20019;-63
2022/01/15 01:20:07;;;;;;;26.17;5.25;;;;;;;;;;5115852;28;20072;-61
2022/01/15 01:23:06;;;;;;;25.60;4.65;;;;;;;;;;5100597;28;20030;-62
2022/01/15 01:25:36;;;;;;;23.45;4.53;;;;;;;;;;5107746;28;20043;-62
2022/01/15 01:28:13;;;;;;;16.10;3.42;;;;;;;;;;5115678;28;20106;-63
2022/01/15 01:30:53;;;;;;;20.45;3.72;;;;;;;;;;5115619;28;20119;-63
2022/01/15 01:35:56;;;;;;;18.05;4.38;;;;;;;;;;5094884;28;20075;-61
2022/01/15 01:38:30;;;;;;;148.95;71.30;;;;;;;;;;5095143;28;20027;-62
2022/01/15 01:40:58;;;;;;;51.42;16.25;;;;;;;;;;5095005;28;20534;-61
2022/01/15 01:46:00;;;;;;;38.15;13.00;;;;;;;;;;5097444;28;20019;-63
2022/01/15 01:48:25;;;;;;;25.33;5.57;;;;;;;;;;5115591;28;20027;-62
2022/01/15 01:50:51;;;;;;;25.33;7.60;;;;;;;;;;5112626;28;20480;-62
2022/01/15 01:53:16;;;;;;;26.80;4.68;;;;;;;;;;5115075;28;20540;-62
2022/01/15 01:55:42;;;;;;;17.77;4.03;;;;;;;;;;5115146;28;20351;-61
2022/01/15 01:58:07;;;;;;;20.63;3.65;;;;;;;;;;5111387;28;20111;-67
2022/01/15 02:00:33;;;;;;;22.58;3.47;;;;;;;;;;5115043;28;20385;-63
2022/01/15 02:02:59;;;;;;;26.42;6.75;;;;;;;;;;5115222;28;20399;-62
2022/01/15 02:08:00;;;;;;;26.02;5.60;;;;;;;;;;5453623;22;20054;-58
2022/01/15 02:10:26;;;;;;;24.95;5.38;;;;;;;;;;5005916;28;20388;-61
2022/01/15 02:12:52;;;;;;;19.95;3.63;;;;;;;;;;5013558;28;20030;-71
2022/01/15 02:15:22;;;;;;;20.13;3.20;;;;;;;;;;5014938;28;20092;-70
2022/01/15 02:17:49;;;;;;;19.80;2.97;;;;;;;;;;5014785;28;20044;-59
2022/01/15 02:25:53;;;;;;;27.23;8.05;;;;;;;;;;5014415;28;20053;-59
2022/01/15 02:28:21;;;;;;;17.40;4.55;;;;;;;;;;5014502;28;20030;-56
2022/01/15 02:30:58;;;;;;;21.35;3.97;;;;;;;;;;5014249;28;20040;-58
2022/01/15 02:33:24;;;;;;;25.10;3.83;;;;;;;;;;5013096;28;20188;-61
2022/01/15 02:35:51;;;;;;;33.40;8.02;;;;;;;;;;5014063;28;20101;-56
2022/01/15 02:38:16;;;;;;;30.33;8.68;;;;;;;;;;5014377;28;20021;-58
2022/01/15 02:40:43;;;;;;;21.80;4.90;;;;;;;;;;5014188;28;20037;-57
2022/01/15 02:43:12;;;;;;;23.42;6.40;;;;;;;;;;5014255;28;20029;-59
2022/01/15 02:45:42;;;;;;;23.23;5.57;;;;;;;;;;5012647;28;20032;-58
2022/01/15 02:48:13;;;;;;;20.38;4.35;;;;;;;;;;5009327;28;20275;-60
2022/01/15 02:50:41;;;;;;;19.15;4.55;;;;;;;;;;5013408;28;20030;-60
2022/01/15 02:53:07;;;;;;;13.70;3.33;;;;;;;;;;5013903;28;20026;-58
2022/01/15 02:55:33;;;;;;;24.90;5.53;;;;;;;;;;5012501;28;20026;-59
2022/01/15 02:57:58;;;;;;;27.83;8.65;;;;;;;;;;5013914;28;20377;-61
2022/01/15 03:00:28;;;;;;;29.75;11.40;;;;;;;;;;5014198;28;20029;-56
2022/01/15 03:02:53;;;;;;;32.63;6.47;;;;;;;;;;5013535;28;20029;-61
2022/01/15 03:05:20;;;;;;;26.52;7.45;;;;;;;;;;5013749;28;20040;-58
2022/01/15 03:07:46;;;;;;;21.05;3.95;;;;;;;;;;5020310;28;20057;-60
2022/01/15 03:10:12;;;;;;;16.40;3.13;;;;;;;;;;5033665;28;20107;-58
2022/01/15 03:12:37;;;;;;;23.23;3.40;;;;;;;;;;5032940;28;20037;-61
2022/01/15 03:15:05;;;;;;;15.82;3.38;;;;;;;;;;5033333;28;20059;-61
2022/01/15 03:17:32;;;;;;;23.55;4.15;;;;;;;;;;5032782;28;20104;-59
2022/01/15 03:19:58;;;;;;;21.25;6.10;;;;;;;;;;5033264;28;20021;-60
2022/01/15 03:22:24;;;;;;;16.73;4.50;;;;;;;;;;5033225;28;20503;-58
2022/01/15 03:24:50;;;;;;;18.40;4.55;;;;;;;;;;5033464;28;20064;-59
2022/01/15 03:27:15;;;;;;;20.42;5.25;;;;;;;;;;5033056;28;20044;-57
2022/01/15 03:29:41;;;;;;;21.08;7.43;;;;;;;;;;5033247;28;20021;-60
2022/01/15 03:32:07;;;;;;;27.90;6.95;;;;;;;;;;5033000;28;20563;-58
2022/01/15 03:34:33;;;;;;;26.98;5.95;;;;;;;;;;5032881;28;20029;-58
2022/01/15 03:36:58;;;;;;;16.58;4.05;;;;;;;;;;5033088;28;20163;-58
2022/01/15 03:39:24;;;;;;;37.40;7.05;;;;;;;;;;5033060;28;20030;-59
2022/01/15 03:41:49;;;;;;;27.05;7.13;;;;;;;;;;5030236;28;20376;-63
2022/01/15 03:44:15;;;;;;;45.08;13.55;;;;;;;;;;5024587;28;20034;-60
2022/01/15 03:46:41;;;;;;;20.73;5.13;;;;;;;;;;5028705;28;20365;-59
2022/01/15 03:49:06;;;;;;;18.95;3.22;;;;;;;;;;5032891;28;20057;-62
2022/01/15 03:51:32;;;;;;;27.85;3.83;;;;;;;;;;5032823;28;20025;-59
2022/01/15 03:53:57;;;;;;;16.92;3.53;;;;;;;;;;5032957;28;20030;-61
2022/01/15 03:56:23;;;;;;;19.63;2.90;;;;;;;;;;5032443;28;20041;-58
2022/01/15 03:58:48;;;;;;;18.67;3.13;;;;;;;;;;5032895;28;20064;-58
2022/01/15 04:01:14;;;;;;;23.02;3.75;;;;;;;;;;5032371;28;20380;-60
2022/01/15 04:03:39;;;;;;;19.25;4.05;;;;;;;;;;5032517;28;20467;-60
2022/01/15 04:06:05;;;;;;;20.98;4.32;;;;;;;;;;5032799;28;20040;-61
2022/01/15 04:08:30;;;;;;;28.00;6.72;;;;;;;;;;5031129;28;20380;-61
2022/01/15 04:10:56;;;;;;;23.33;5.63;;;;;;;;;;5032745;28;20472;-64
2022/01/15 04:13:22;;;;;;;17.55;4.53;;;;;;;;;;5032586;28;20025;-63
2022/01/15 04:15:51;;;;;;;24.15;5.05;;;;;;;;;;5032447;28;20064;-60
2022/01/15 04:18:18;;;;;;;25.67;5.83;;;;;;;;;;5032477;28;20491;-61
2022/01/15 04:20:43;;;;;;;25.33;5.15;;;;;;;;;;5032512;28;20093;-60
2022/01/15 04:23:09;;;;;;;20.02;4.70;;;;;;;;;;5032585;28;20108;-60
2022/01/15 04:25:34;;;;;;;23.48;3.83;;;;;;;;;;5032639;28;20117;-59
2022/01/15 04:28:02;;;;;;;24.23;3.88;;;;;;;;;;5034373;28;20013;-60
2022/01/15 04:30:27;;;;;;;13.60;3.33;;;;;;;;;;5036744;28;20074;-60
2022/01/15 04:32:53;;;;;;;17.60;3.22;;;;;;;;;;5036498;28;20107;-64
2022/01/15 04:35:19;;;;;;;19.60;3.58;;;;;;;;;;5018953;28;20488;-59
2022/01/15 04:37:48;;;;;;;21.48;4.07;;;;;;;;;;5035944;28;20021;-56
2022/01/15 04:40:15;;;;;;;22.52;3.33;;;;;;;;;;5036531;28;20032;-58
2022/01/15 04:42:42;;;;;;;21.90;4.35;;;;;;;;;;5036327;28;20045;-58
2022/01/15 04:45:08;;;;;;;22.05;3.53;;;;;;;;;;5036453;28;20033;-61
2022/01/15 04:47:38;;;;;;;19.35;3.38;;;;;;;;;;5036091;28;20472;-59
2022/01/15 04:50:06;;;;;;;19.42;3.30;;;;;;;;;;5036355;28;20029;-59
2022/01/15 04:52:34;;;;;;;15.75;3.08;;;;;;;;;;5035519;28;20045;-60
2022/01/15 04:55:01;;;;;;;26.08;3.47;;;;;;;;;;5036222;28;20022;-59
2022/01/15 04:57:27;;;;;;;24.00;3.85;;;;;;;;;;5035892;28;20487;-62
2022/01/15 04:59:52;;;;;;;27.00;4.78;;;;;;;;;;5036194;28;20044;-57
2022/01/15 05:02:18;;;;;;;27.98;4.10;;;;;;;;;;5035830;28;20025;-59
2022/01/15 05:04:43;;;;;;;21.35;4.20;;;;;;;;;;5036016;28;20029;-62
2022/01/15 05:07:09;;;;;;;23.88;5.20;;;;;;;;;;5035719;28;20095;-59
2022/01/15 05:09:34;;;;;;;22.98;3.78;;;;;;;;;;5031564;28;20037;-61
2022/01/15 05:12:04;;;;;;;36.22;8.35;;;;;;;;;;5035772;28;20021;-63
2022/01/15 05:14:30;;;;;;;30.83;7.50;;;;;;;;;;5035751;28;20025;-60
2022/01/15 05:16:55;;;;;;;19.52;3.35;;;;;;;;;;5035594;28;20025;-64
2022/01/15 05:19:20;;;;;;;16.73;3.25;;;;;;;;;;5035852;28;20033;-59
2022/01/15 05:21:46;;;;;;;24.40;3.00;;;;;;;;;;5035646;28;20033;-56
2022/01/15 05:24:12;;;;;;;23.73;4.30;;;;;;;;;;5035600;28;20395;-58
2022/01/15 05:26:37;;;;;;;22.92;4.00;;;;;;;;;;5028962;28;20037;-58
2022/01/15 05:29:03;;;;;;;15.98;5.03;;;;;;;;;;5027435;28;20041;-59
2022/01/15 05:31:28;;;;;;;16.27;3.30;;;;;;;;;;5035160;28;20458;-56
2022/01/15 05:33:54;;;;;;;20.40;3.20;;;;;;;;;;5035520;28;20036;-59
2022/01/15 05:36:19;;;;;;;15.93;3.75;;;;;;;;;;5035219;28;20109;-58
2022/01/15 05:38:45;;;;;;;25.73;4.05;;;;;;;;;;5033947;28;20030;-59
2022/01/15 05:41:11;;;;;;;18.10;3.25;;;;;;;;;;5035147;28;20035;-57
2022/01/15 05:43:36;;;;;;;33.15;3.30;;;;;;;;;;5035342;28;20034;-59
2022/01/15 05:46:02;;;;;;;25.30;3.35;;;;;;;;;;5034559;28;20083;-59
2022/01/15 05:48:27;;;;;;;19.02;3.45;;;;;;;;;;5033686;28;20026;-64
2022/01/15 05:50:53;;;;;;;22.60;3.88;;;;;;;;;;5035271;28;20041;-62
2022/01/15 05:53:18;;;;;;;18.92;3.95;;;;;;;;;;5034379;28;20022;-64
2022/01/15 05:55:44;;;;;;;20.52;3.55;;;;;;;;;;5034886;28;20044;-60
2022/01/15 05:58:09;;;;;;;28.45;3.80;;;;;;;;;;5033141;28;20068;-59
2022/01/15 06:00:35;;;;;;;18.95;3.08;;;;;;;;;;5031264;28;20026;-60
2022/01/15 06:03:01;;;;;;;17.67;3.20;;;;;;;;;;5034950;28;20117;-64
2022/01/15 06:05:26;;;;;;;26.70;4.07;;;;;;;;;;5034480;28;20109;-59
2022/01/15 06:07:52;;;;;;;20.05;3.47;;;;;;;;;;5033435;28;20038;-59
2022/01/15 06:10:17;;;;;;;29.25;4.68;;;;;;;;;;5034076;28;20044;-58
2022/01/15 06:12:44;;;;;;;22.83;3.97;;;;;;;;;;5034455;28;20025;-59
2022/01/15 06:15:12;;;;;;;25.38;5.10;;;;;;;;;;5034420;28;20026;-64
2022/01/15 06:17:38;;;;;;;17.60;3.40;;;;;;;;;;5034645;28;20059;-61
2022/01/15 06:20:04;;;;;;;35.47;5.32;;;;;;;;;;5033362;28;20551;-58
2022/01/15 06:22:29;;;;;;;31.63;3.72;;;;;;;;;;5030302;28;20056;-61
2022/01/15 06:24:54;;;;;;;25.10;4.20;;;;;;;;;;5034592;28;20470;-58
2022/01/15 06:27:20;;;;;;;26.90;4.60;;;;;;;;;;5034206;28;20032;-57
2022/01/15 06:29:46;;;;;;;23.60;4.32;;;;;;;;;;5034315;28;20057;-58
2022/01/15 06:32:12;;;;;;;27.80;4.38;;;;;;;;;;5034432;28;20100;-59
2022/01/15 06:34:38;;;;;;;38.45;5.65;;;;;;;;;;5034150;28;20493;-57
2022/01/15 06:37:05;;;;;;;30.83;6.00;;;;;;;;;;5031747;28;20423;-59
2022/01/15 06:39:32;;;;;;;27.98;5.68;;;;;;;;;;5027836;28;20061;-59
2022/01/15 06:41:57;;;;;;;37.38;6.00;;;;;;;;;;5034259;28;20025;-61
2022/01/15 06:44:23;;;;;;;23.17;5.15;;;;;;;;;;5033256;28;20497;-60
2022/01/15 06:46:48;;;;;;;27.85;4.40;;;;;;;;;;5032691;28;20088;-59
2022/01/15 06:49:14;;;;;;;25.83;5.30;;;;;;;;;;5033909;28;20075;-57
2022/01/15 06:51:39;;;;;;;39.47;8.88;;;;;;;;;;5030247;28;20029;-60
2022/01/15 06:54:04;;;;;;;54.35;10.02;;;;;;;;;;5033954;28;20034;-59
2022/01/15 06:56:30;;;;;;;36.55;10.55;;;;;;;;;;5033659;28;20025;-58
2022/01/15 06:58:55;;;;;;;30.10;5.45;;;;;;;;;;5033780;28;20087;-59
2022/01/15 07:01:21;;;;;;;24.30;5.00;;;;;;;;;;5031399;28;20025;-60
2022/01/15 07:03:46;;;;;;;24.50;6.15;;;;;;;;;;5031380;28;20022;-59
2022/01/15 07:06:12;;;;;;;35.67;6.70;;;;;;;;;;5033719;28;20021;-58
2022/01/15 07:08:37;;;;;;;25.85;4.53;;;;;;;;;;5032768;28;20046;-60
2022/01/15 07:11:02;;;;;;;18.85;4.72;;;;;;;;;;5033646;28;20040;-60
2022/01/15 07:13:29;;;;;;;31.50;5.57;;;;;;;;;;5033577;28;20464;-59
2022/01/15 07:15:55;;;;;;;43.72;6.05;;;;;;;;;;5026468;28;20026;-65
2022/01/15 07:18:21;;;;;;;34.30;5.68;;;;;;;;;;5031653;28;20559;-64
2022/01/15 07:20:46;;;;;;;28.15;4.43;;;;;;;;;;5029254;28;20035;-62
2022/01/15 07:23:12;;;;;;;29.88;4.57;;;;;;;;;;5033383;28;20460;-64
2022/01/15 07:25:37;;;;;;;19.52;4.72;;;;;;;;;;5031620;28;20052;-63
2022/01/15 07:28:03;;;;;;;24.75;4.68;;;;;;;;;;5033202;28;20079;-65
2022/01/15 07:30:28;;;;;;;17.70;4.72;;;;;;;;;;5019940;28;20072;-61
2022/01/15 07:32:53;;;;;;;20.17;5.03;;;;;;;;;;5033425;28;20083;-65
2022/01/15 07:35:19;;;;;;;34.60;5.53;;;;;;;;;;5032993;28;20083;-65
2022/01/15 07:37:45;;;;;;;27.02;4.53;;;;;;;;;;5033187;28;20021;-66
2022/01/15 07:40:11;;;;;;;22.55;4.43;;;;;;;;;;5031844;28;20017;-63
2022/01/15 07:42:38;;;;;;;17.85;4.25;;;;;;;;;;5032655;28;20029;-64
2022/01/15 07:45:13;;;;;;;19.27;4.47;;;;;;;;;;5032960;28;20033;-64
2022/01/15 07:47:38;;;;;;;24.63;4.82;;;;;;;;;;5028740;28;20029;-64
2022/01/15 07:50:06;;;;;;;16.55;4.47;;;;;;;;;;5028062;28;20043;-65
2022/01/15 07:52:32;;;;;;;22.08;4.95;;;;;;;;;;5024843;28;20375;-63
2022/01/15 07:54:58;;;;;;;36.25;5.28;;;;;;;;;;5028395;28;20036;-66
2022/01/15 07:57:24;;;;;;;24.58;4.43;;;;;;;;;;5032704;28;20061;-66
2022/01/15 07:59:50;;;;;;;25.98;3.90;;;;;;;;;;5032256;28;20023;-63
2022/01/15 08:02:16;;;;;;;23.17;4.95;;;;;;;;;;5027955;28;20116;-63
2022/01/15 08:04:42;;;;;;;23.63;5.60;;;;;;;;;;5032599;28;20472;-64
2022/01/15 08:07:09;;;;;;;40.20;13.43;;;;;;;;;;5032154;28;20041;-66
2022/01/15 08:09:35;;;;;;;39.03;12.32;;;;;;;;;;5031766;28;20021;-64
2022/01/15 08:12:01;;;;;;;34.55;12.68;;;;;;;;;;5032857;28;20017;-64
2022/01/15 08:14:27;;;;;;;43.10;16.02;;;;;;;;;;5028570;28;20555;-65
2022/01/15 08:16:52;;;;;;;44.42;13.18;;;;;;;;;;5028452;28;20108;-64
2022/01/15 08:19:18;;;;;;;32.97;8.00;;;;;;;;;;5028633;28;20029;-66
2022/01/15 08:21:43;;;;;;;24.67;8.55;;;;;;;;;;5032317;28;20032;-65
2022/01/15 08:24:10;;;;;;;38.05;11.55;;;;;;;;;;5032520;28;20018;-65
2022/01/15 08:26:36;;;;;;;33.78;11.15;;;;;;;;;;5032312;28;20033;-66
2022/01/15 08:29:01;;;;;;;39.78;8.85;;;;;;;;;;5014652;28;20083;-66
2022/01/15 08:31:27;;;;;;;29.13;8.15;;;;;;;;;;5032253;28;20112;-64
2022/01/15 08:33:52;;;;;;;38.00;8.68;;;;;;;;;;5021164;28;20025;-65
2022/01/15 08:36:18;;;;;;;21.90;9.32;;;;;;;;;;5029800;28;20032;-64
2022/01/15 08:38:45;;;;;;;31.80;8.30;;;;;;;;;;5032125;28;20029;-65
2022/01/15 08:41:12;;;;;;;28.00;9.45;;;;;;;;;;5031661;28;20021;-66
2022/01/15 08:43:38;;;;;;;25.20;6.78;;;;;;;;;;5021641;28;20026;-66
2022/01/15 08:46:04;;;;;;;24.23;6.28;;;;;;;;;;5032098;28;20026;-66
2022/01/15 08:48:29;;;;;;;22.60;6.50;;;;;;;;;;5031052;28;20037;-64
2022/01/15 08:50:55;;;;;;;30.77;7.40;;;;;;;;;;5014526;28;20026;-63
2022/01/15 08:53:21;;;;;;;31.27;7.88;;;;;;;;;;5031198;28;20544;-66
2022/01/15 08:55:47;;;;;;;24.35;7.35;;;;;;;;;;5013976;28;20085;-66
2022/01/15 08:58:13;;;;;;;28.55;8.25;;;;;;;;;;5032301;28;20025;-63
2022/01/15 09:00:39;;;;;;;43.25;13.30;;;;;;;;;;5032050;28;20125;-65
2022/01/15 09:03:07;;;;;;;39.45;10.68;;;;;;;;;;5007058;28;20025;-62
2022/01/15 09:05:34;;;;;;;36.20;11.30;;;;;;;;;;5031690;28;20030;-63
2022/01/15 09:08:00;;;;;;;53.67;20.13;;;;;;;;;;5031400;28;20411;-65
2022/01/15 09:10:25;;;;;;;82.65;30.48;;;;;;;;;;5031995;28;20029;-63
2022/01/15 09:12:51;;;;;;;95.18;42.85;;;;;;;;;;5032167;28;20018;-61
2022/01/15 09:15:17;;;;;;;80.45;25.95;;;;;;;;;;5033667;28;20029;-66
2022/01/15 09:17:43;;;;;;;34.67;12.00;;;;;;;;;;5035134;28;20535;-65
2022/01/15 09:20:09;;;;;;;29.98;9.77;;;;;;;;;;5035596;28;20125;-66
2022/01/15 09:22:35;;;;;;;24.15;8.52;;;;;;;;;;5035243;28;20025;-66
2022/01/15 09:25:00;;;;;;;32.40;10.82;;;;;;;;;;5035248;28;20032;-62
2022/01/15 09:30:12;;;;;;;39.13;10.77;;;;;;;;;;5035631;28;20591;-64
2022/01/15 09:32:42;;;;;;;30.05;8.93;;;;;;;;;;5035799;28;20028;-61
2022/01/15 09:35:09;;;;;;;28.88;9.32;;;;;;;;;;5035474;28;20396;-60
2022/01/15 09:37:35;;;;;;;37.50;11.82;;;;;;;;;;5017531;28;20107;-57
2022/01/15 09:40:01;;;;;;;44.88;13.27;;;;;;;;;;5035280;28;20093;-58
2022/01/15 09:42:27;;;;;;;43.80;14.43;;;;;;;;;;5035250;28;20032;-59
2022/01/15 09:44:53;;;;;;;40.85;14.85;;;;;;;;;;5035176;28;20116;-59
2022/01/15 09:47:22;;;;;;;37.33;11.38;;;;;;;;;;5035223;28;20105;-59
2022/01/15 09:49:50;;;;;;;53.30;22.42;;;;;;;;;;5031059;28;20025;-61
2022/01/15 09:52:17;;;;;;;30.42;10.50;;;;;;;;;;5025633;28;20383;-66
2022/01/15 09:54:43;;;;;;;30.60;10.65;;;;;;;;;;5034973;28;20402;-65
2022/01/15 09:57:09;;;;;;;22.45;9.02;;;;;;;;;;5035143;28;20032;-65
2022/01/15 09:59:35;;;;;;;33.40;8.93;;;;;;;;;;5034467;28;20017;-62
2022/01/15 10:02:03;;;;;;;30.08;10.18;;;;;;;;;;5034963;28;20088;-63
2022/01/15 10:04:32;;;;;;;31.98;9.88;;;;;;;;;;5034753;28;20022;-65
2022/01/15 10:07:08;;;;;;;39.20;15.00;;;;;;;;;;5034604;28;20080;-65
2022/01/15 10:09:35;;;;;;;36.92;10.80;;;;;;;;;;5034800;28;20586;-66
2022/01/15 10:12:00;;;;;;;21.55;8.43;;;;;;;;;;5034843;28;20036;-63
2022/01/15 10:14:29;;;;;;;26.88;10.63;;;;;;;;;;5034645;28;20025;-65
2022/01/15 10:16:57;;;;;;;26.63;10.10;;;;;;;;;;5034577;28;20026;-63
2022/01/15 10:19:36;;;;;;;25.25;8.45;;;;;;;;;;5034541;28;20032;-63
2022/01/15 10:22:15;;;;;;;24.73;8.48;;;;;;;;;;5023849;28;20029;-60
2022/01/15 10:24:51;;;;;;;119.82;64.93;;;;;;;;;;5023264;28;20035;-62
2022/01/15 10:27:22;;;;;;;47.00;19.90;;;;;;;;;;5025795;28;20028;-62
2022/01/15 10:29:56;;;;;;;53.95;25.83;;;;;;;;;;5027384;28;20057;-60
2022/01/15 10:32:24;;;;;;;17.38;6.63;;;;;;;;;;5031492;28;20109;-60
2022/01/15 10:34:50;;;;;;;18.52;5.78;;;;;;;;;;5033635;28;20026;-66
2022/01/15 10:37:25;;;;;;;30.00;10.88;;;;;;;;;;5026834;28;20377;-59
2022/01/15 10:40:02;;;;;;;21.15;8.98;;;;;;;;;;5028544;28;20427;-61
2022/01/15 10:42:27;;;;;;;18.48;7.70;;;;;;;;;;5025659;28;20120;-62
2022/01/15 10:44:55;;;;;;;17.15;6.20;;;;;;;;;;5028635;28;20120;-60
2022/01/15 10:47:24;;;;;;;25.77;7.10;;;;;;;;;;5027133;28;20033;-58
2022/01/15 10:49:50;;;;;;;18.98;6.20;;;;;;;;;;5025881;28;20025;-58
2022/01/15 10:52:22;;;;;;;15.93;5.80;;;;;;;;;;5025841;28;20025;-58
2022/01/15 10:55:02;;;;;;;18.80;6.18;;;;;;;;;;5029610;28;20025;-58
2022/01/15 10:57:33;;;;;;;24.23;6.55;;;;;;;;;;5032928;28;20419;-59
2022/01/15 11:00:04;;;;;;;16.35;5.95;;;;;;;;;;5033595;28;20112;-65
2022/01/15 11:02:30;;;;;;;16.92;5.68;;;;;;;;;;5033377;28;20105;-62
2022/01/15 11:04:55;;;;;;;19.45;5.88;;;;;;;;;;5033289;28;20057;-61
2022/01/15 11:07:21;;;;;;;16.35;5.97;;;;;;;;;;5032621;28;20467;-59
2022/01/15 11:09:48;;;;;;;22.25;7.28;;;;;;;;;;5033024;28;20025;-65
2022/01/15 11:12:14;;;;;;;20.40;8.80;;;;;;;;;;5033695;28;20014;-62
2022/01/15 11:14:40;;;;;;;23.27;5.30;;;;;;;;;;5032957;28;20026;-65
2022/01/15 11:17:06;;;;;;;23.15;5.78;;;;;;;;;;5033494;28;20040;-60
2022/01/15 11:19:34;;;;;;;18.80;5.85;;;;;;;;;;5033205;28;20514;-60
2022/01/15 11:22:00;;;;;;;18.50;9.10;;;;;;;;;;5033478;28;20033;-65
2022/01/15 11:24:26;;;;;;;19.48;6.70;;;;;;;;;;5028902;28;20022;-65
2022/01/15 11:26:55;;;;;;;17.13;8.05;;;;;;;;;;5033256;28;20033;-62
2022/01/15 11:29:25;;;;;;;19.27;6.05;;;;;;;;;;5032567;28;20024;-61
2022/01/15 11:31:53;;;;;;;36.33;14.02;;;;;;;;;;5028967;28;20515;-60
2022/01/15 11:34:20;;;;;;;13.52;4.50;;;;;;;;;;5025221;28;20041;-59
2022/01/15 11:36:47;;;;;;;16.05;5.28;;;;;;;;;;5023050;28;20037;-59
2022/01/15 11:39:17;;;;;;;22.40;6.07;;;;;;;;;;5031620;28;20551;-60
2022/01/15 11:41:53;;;;;;;15.55;5.60;;;;;;;;;;5032415;28;20025;-61
2022/01/15 11:44:38;;;;;;;15.85;6.43;;;;;;;;;;5033033;28;20518;-62
2022/01/15 11:47:17;;;;;;;15.38;5.15;;;;;;;;;;5031740;28;20044;-58
2022/01/15 11:49:49;;;;;;;15.23;5.40;;;;;;;;;;5029680;28;20472;-65
2022/01/15 11:52:14;;;;;;;12.57;5.47;;;;;;;;;;5028741;28;20033;-60
2022/01/15 11:54:48;;;;;;;13.15;4.88;;;;;;;;;;5031412;28;20112;-58
2022/01/15 11:57:34;;;;;;;13.05;5.38;;;;;;;;;;5031167;28;20038;-61
2022/01/15 12:00:05;;;;;;;18.75;6.30;;;;;;;;;;5029027;28;20037;-60
2022/01/15 12:02:34;;;;;;;21.25;6.47;;;;;;;;;;5031279;28;20029;-59
2022/01/15 12:05:14;;;;;;;13.45;5.20;;;;;;;;;;5032606;28;20119;-61
2022/01/15 12:07:40;;;;;;;20.25;5.78;;;;;;;;;;5031682;28;20045;-63
2022/01/15 12:10:09;;;;;;;10.35;4.45;;;;;;;;;;5031200;28;20032;-59
2022/01/15 12:12:41;;;;;;;18.08;5.13;;;;;;;;;;5014366;28;20029;-64
2022/01/15 12:15:10;;;;;;;11.65;4.82;;;;;;;;;;5031686;28;20546;-64
2022/01/15 12:17:39;;;;;;;19.90;5.03;;;;;;;;;;5031773;28;20095;-64
2022/01/15 12:20:16;;;;;;;15.95;4.78;;;;;;;;;;5032150;28;20453;-60
2022/01/15 12:22:46;;;;;;;14.40;4.85;;;;;;;;;;5032111;28;20038;-60
2022/01/15 12:25:17;;;;;;;16.58;5.15;;;;;;;;;;5032545;28;20487;-62
2022/01/15 12:27:45;;;;;;;15.02;4.70;;;;;;;;;;5032252;28;20032;-63
2022/01/15 12:30:13;;;;;;;12.45;4.90;;;;;;;;;;5031825;28;20021;-63
2022/01/15 12:32:47;;;;;;;14.70;4.35;;;;;;;;;;5032380;28;20380;-62
2022/01/15 12:35:16;;;;;;;19.77;4.30;;;;;;;;;;5032466;28;20391;-55
2022/01/15 12:38:04;;;;;;;17.92;5.00;;;;;;;;;;5031905;28;20503;-60
2022/01/15 12:40:36;;;;;;;16.60;5.07;;;;;;;;;;5032540;28;20040;-61
2022/01/15 12:43:05;;;;;;;11.90;4.47;;;;;;;;;;5032450;28;20021;-59
2022/01/15 12:45:32;;;;;;;12.40;4.07;;;;;;;;;;5014204;28;20029;-56
2022/01/15 12:47:58;;;;;;;15.57;4.28;;;;;;;;;;5032238;28;20022;-57
2022/01/15 12:50:24;;;;;;;17.38;4.75;;;;;;;;;;5034821;28;20033;-60
2022/01/15 12:53:04;;;;;;;26.10;6.50;;;;;;;;;;5036357;28;20068;-57
2022/01/15 12:55:34;;;;;;;29.67;6.78;;;;;;;;;;5036183;28;20103;-57
2022/01/15 12:58:01;;;;;;;26.80;7.03;;;;;;;;;;5036268;28;20025;-59
2022/01/15 13:00:31;;;;;;;29.40;8.18;;;;;;;;;;5035779;28;20022;-58
2022/01/15 13:03:00;;;;;;;;;;;;;;;;;;5036390;28;20029;-57
2022/01/15 13:05:31;;;;;;;9.23;2.78;;;;;;;;;;5035797;28;19917;-55
2022/01/15 13:08:02;;;;;;;13.98;4.35;;;;;;;;;;5035683;28;20041;-58
2022/01/15 13:10:49;;;;;;;129.25;35.10;;;;;;;;;;5035036;28;20032;-61
2022/01/15 13:13:22;;;;;;;30.58;7.05;;;;;;;;;;5035735;28;20080;-59
2022/01/15 13:15:57;;;;;;;14.43;4.55;;;;;;;;;;5035503;28;20028;-60
2022/01/15 13:18:23;;;;;;;18.50;5.43;;;;;;;;;;5035640;28;20032;-65
2022/01/15 13:20:50;;;;;;;23.05;6.97;;;;;;;;;;5035768;28;20029;-59
2022/01/15 13:23:16;;;;;;;14.07;4.40;;;;;;;;;;5035687;28;20018;-59
2022/01/15 13:25:48;;;;;;;11.60;3.92;;;;;;;;;;5035186;28;20576;-57
2022/01/15 13:28:14;;;;;;;16.20;5.43;;;;;;;;;;5035321;28;20034;-56
2022/01/15 13:30:40;;;;;;;24.20;6.45;;;;;;;;;;5035412;28;20096;-62
2022/01/15 13:33:07;;;;;;;12.38;3.95;;;;;;;;;;5035556;28;20536;-58
2022/01/15 13:35:36;;;;;;;14.48;4.60;;;;;;;;;;5035395;28;20029;-59
2022/01/15 13:38:08;;;;;;;20.58;4.78;;;;;;;;;;5035503;28;20099;-64
2022/01/15 13:40:36;;;;;;;15.43;5.05;;;;;;;;;;5035391;28;20026;-60
2022/01/15 13:43:04;;;;;;;19.85;4.68;;;;;;;;;;5021758;28;20033;-65
2022/01/15 13:45:35;;;;;;;12.75;3.95;;;;;;;;;;5034786;28;20041;-60
2022/01/15 13:48:11;;;;;;;12.82;3.95;;;;;;;;;;5035163;28;20021;-59
2022/01/15 13:53:38;;;;;;;20.55;8.68;;;;;;;;;;5035491;28;20036;-63
2022/01/15 13:56:20;;;;;;;16.35;4.13;;;;;;;;;;5035124;28;20113;-59
2022/01/15 13:58:46;;;;;;;18.48;4.60;;;;;;;;;;5034821;28;20025;-59
2022/01/15 14:01:21;;;;;;;15.18;3.50;;;;;;;;;;5034432;28;20056;-61
2022/01/15 14:03:47;;;;;;;13.30;3.90;;;;;;;;;;5034689;28;20116;-59
2022/01/15 14:06:12;;;;;;;20.35;4.55;;;;;;;;;;5034720;28;20025;-65
2022/01/15 14:08:38;;;;;;;16.02;4.32;;;;;;;;;;5034119;28;20078;-64
2022/01/15 14:11:15;;;;;;;10.10;3.85;;;;;;;;;;5034896;28;20055;-60
2022/01/15 14:13:41;;;;;;;23.05;4.30;;;;;;;;;;5034525;28;20495;-63
2022/01/15 14:16:24;;;;;;;17.83;3.53;;;;;;;;;;5034606;28;20480;-64
2022/01/15 14:19:02;;;;;;;19.75;4.25;;;;;;;;;;5034746;28;20376;-62
2022/01/15 14:23:57;;;;;;;39.60;13.65;;;;;;;;;;5034647;28;20468;-60
2022/01/15 14:26:25;;;;;;;19.13;4.88;;;;;;;;;;5034345;28;20453;-60
2022/01/15 14:28:53;;;;;;;16.27;4.00;;;;;;;;;;5034234;28;20030;-60
2022/01/15 14:31:19;;;;;;;18.48;4.38;;;;;;;;;;5034295;28;20057;-59
2022/01/15 14:33:46;;;;;;;13.18;3.78;;;;;;;;;;5034311;28;20022;-61
2022/01/15 14:36:12;;;;;;;20.85;6.00;;;;;;;;;;5034165;28;20029;-60
2022/01/15 14:38:38;;;;;;;22.77;6.70;;;;;;;;;;5034307;28;20025;-60
2022/01/15 14:41:04;;;;;;;14.93;3.20;;;;;;;;;;5033917;28;20472;-59
2022/01/15 14:43:30;;;;;;;17.98;5.03;;;;;;;;;;5034234;28;20479;-61
2022/01/15 14:45:56;;;;;;;16.05;3.72;;;;;;;;;;5033898;28;20025;-63
2022/01/15 14:48:23;;;;;;;14.77;3.40;;;;;;;;;;5034253;28;20383;-62
2022/01/15 14:50:49;;;;;;;17.90;3.60;;;;;;;;;;5033958;28;20105;-60
2022/01/15 14:53:14;;;;;;;13.68;3.40;;;;;;;;;;5033884;28;20448;-60
2022/01/15 14:55:40;;;;;;;26.20;7.03;;;;;;;;;;5033645;28;20029;-59
2022/01/15 14:58:05;;;;;;;22.17;7.30;;;;;;;;;;5033917;28;20021;-58